createdAt,value
2018-07-22T00:00:12.255Z,99.90
2018-07-22T00:02:41.364Z,99.90
2018-07-22T00:05:10.046Z,99.90
2018-07-22T00:07:38.970Z,99.90
2018-07-22T00:10:27.193Z,99.90
2018-07-22T00:12:56.034Z,99.90
2018-07-22T00:15:24.633Z,99.90
2018-07-22T00:17:53.353Z,99.90
2018-07-22T00:20:22.026Z,99.90
2018-07-22T00:22:50.619Z,99.90
2018-07-22T00:25:19.216Z,99.90
2018-07-22T00:27:47.806Z,99.90
2018-07-22T00:30:16.449Z,99.90
2018-07-22T00:32:45.029Z,99.90
2018-07-22T00:35:13.637Z,99.90
2018-07-22T00:37:42.339Z,99.90
2018-07-22T00:40:12.113Z,99.90
2018-07-22T00:42:40.825Z,99.90
2018-07-22T00:45:12.309Z,99.90
2018-07-22T00:47:41.550Z,99.90
2018-07-22T00:50:10.337Z,99.90
2018-07-22T00:52:39.500Z,99.90
2018-07-22T00:55:08.179Z,99.90
2018-07-22T00:57:36.899Z,99.90
2018-07-22T01:00:06.627Z,99.90
2018-07-22T01:02:37.141Z,99.90
2018-07-22T01:05:06.605Z,99.90
2018-07-22T01:07:35.402Z,99.90
2018-07-22T01:10:04.211Z,99.90
2018-07-22T01:12:32.905Z,99.90
2018-07-22T01:15:01.541Z,99.90
2018-07-22T01:17:30.175Z,99.90
2018-07-22T01:19:58.776Z,99.90
2018-07-22T01:22:27.365Z,99.90
2018-07-22T01:24:55.965Z,99.90
2018-07-22T01:27:24.594Z,99.90
2018-07-22T01:29:53.290Z,99.90
2018-07-22T01:32:22.049Z,99.90
2018-07-22T01:34:50.694Z,99.90
2018-07-22T01:37:19.446Z,99.90
2018-07-22T01:39:48.346Z,99.90
2018-07-22T01:42:17.077Z,99.90
2018-07-22T01:44:45.718Z,99.90
2018-07-22T01:47:14.333Z,99.90
2018-07-22T01:49:42.919Z,99.90
2018-07-22T01:52:11.527Z,99.90
2018-07-22T01:54:40.137Z,99.90
2018-07-22T01:57:08.800Z,99.90
2018-07-22T01:59:37.523Z,99.90
2018-07-22T02:02:06.268Z,99.90
2018-07-22T02:04:35.037Z,99.90
2018-07-22T02:07:03.839Z,99.90
2018-07-22T02:09:32.637Z,99.90
2018-07-22T02:12:01.232Z,99.90
2018-07-22T02:14:29.862Z,99.90
2018-07-22T02:16:58.468Z,99.90
2018-07-22T02:19:27.097Z,99.90
2018-07-22T02:21:55.665Z,99.90
2018-07-22T02:24:24.285Z,99.90
2018-07-22T02:26:52.922Z,99.90
2018-07-22T02:29:21.680Z,99.90
2018-07-22T02:31:50.261Z,99.90
2018-07-22T02:34:18.893Z,99.90
2018-07-22T02:36:47.473Z,99.90
2018-07-22T02:39:16.073Z,99.90
2018-07-22T02:41:44.642Z,99.90
2018-07-22T02:44:13.251Z,99.90
2018-07-22T02:46:41.826Z,99.90
2018-07-22T02:49:10.479Z,99.90
2018-07-22T02:51:39.211Z,99.90
2018-07-22T02:54:08.035Z,99.90
2018-07-22T02:56:36.754Z,99.90
2018-07-22T02:59:06.227Z,99.90
2018-07-22T03:01:37.073Z,99.90
2018-07-22T03:04:06.586Z,99.90
2018-07-22T03:06:35.372Z,99.90
2018-07-22T03:09:05.487Z,99.90
2018-07-22T03:11:34.141Z,99.90
2018-07-22T03:14:02.813Z,99.90
2018-07-22T03:16:31.457Z,99.90
2018-07-22T03:19:00.074Z,99.90
2018-07-22T03:23:56.918Z,99.90
2018-07-22T03:26:25.530Z,99.90
2018-07-22T03:28:54.389Z,99.90
2018-07-22T03:31:23.013Z,99.90
2018-07-22T03:33:51.621Z,99.90
2018-07-22T03:36:20.218Z,99.90
2018-07-22T03:38:48.873Z,99.90
2018-07-22T03:41:17.473Z,99.90
2018-07-22T03:43:46.073Z,99.90
2018-07-22T03:46:14.650Z,99.90
2018-07-22T03:48:43.221Z,99.90
2018-07-22T03:51:11.797Z,99.90
2018-07-22T03:53:40.444Z,99.90
2018-07-22T03:56:09.073Z,99.90
2018-07-22T03:58:37.745Z,99.90
2018-07-22T04:01:06.530Z,99.90
2018-07-22T04:03:35.202Z,99.90
2018-07-22T04:06:04.231Z,99.90
2018-07-22T04:08:32.858Z,99.90
2018-07-22T04:11:01.496Z,99.90
2018-07-22T04:13:30.098Z,99.90
2018-07-22T04:15:58.805Z,99.90
2018-07-22T04:18:27.425Z,99.90
2018-07-22T04:20:56.069Z,99.90
2018-07-22T04:23:24.633Z,99.90
2018-07-22T04:25:53.317Z,99.90
2018-07-22T04:28:21.953Z,99.90
2018-07-22T04:30:50.565Z,99.90
2018-07-22T04:33:19.200Z,99.90
2018-07-22T04:35:47.829Z,99.90
2018-07-22T04:38:16.413Z,99.90
2018-07-22T04:40:45.047Z,99.90
2018-07-22T04:43:13.661Z,99.90
2018-07-22T04:45:42.238Z,99.90
2018-07-22T04:48:10.861Z,99.90
2018-07-22T04:50:39.474Z,99.90
2018-07-22T04:55:36.533Z,99.90
2018-07-22T04:58:06.097Z,99.90
2018-07-22T05:00:34.889Z,99.90
2018-07-22T05:03:03.724Z,99.90
2018-07-22T05:05:32.377Z,99.90
2018-07-22T05:10:29.185Z,99.90
2018-07-22T05:12:57.801Z,99.90
2018-07-22T05:15:26.388Z,99.90
2018-07-22T05:17:55.079Z,99.90
2018-07-22T05:20:23.719Z,99.90
2018-07-22T05:22:52.415Z,99.90
2018-07-22T05:25:21.007Z,99.90
2018-07-22T05:27:49.629Z,99.90
2018-07-22T05:30:18.208Z,99.90
2018-07-22T05:32:46.797Z,99.90
2018-07-22T05:35:15.380Z,99.90
2018-07-22T05:37:44.021Z,99.90
2018-07-22T05:40:12.673Z,99.90
2018-07-22T05:42:41.293Z,99.90
2018-07-22T05:45:10.001Z,99.90
2018-07-22T05:47:39.305Z,99.90
2018-07-22T05:50:08.201Z,99.90
2018-07-22T05:52:36.846Z,99.90
2018-07-22T05:55:05.629Z,99.90
2018-07-22T05:57:34.586Z,99.90
2018-07-22T06:00:03.401Z,99.90
2018-07-22T06:02:32.009Z,99.90
2018-07-22T06:05:00.632Z,99.90
2018-07-22T06:07:29.200Z,99.90
2018-07-22T06:09:57.781Z,99.90
2018-07-22T06:12:26.427Z,99.90
2018-07-22T06:14:55.092Z,99.90
2018-07-22T06:17:23.787Z,99.90
2018-07-22T06:19:52.531Z,99.90
2018-07-22T06:22:21.366Z,99.90
2018-07-22T06:24:50.043Z,99.90
2018-07-22T06:27:18.711Z,99.90
2018-07-22T06:29:47.300Z,99.90
2018-07-22T06:32:15.892Z,99.90
2018-07-22T06:34:44.513Z,99.90
2018-07-22T06:37:13.131Z,99.90
2018-07-22T06:39:41.710Z,99.90
2018-07-22T06:42:10.361Z,99.90
2018-07-22T06:44:38.988Z,99.90
2018-07-22T06:47:07.711Z,99.90
2018-07-22T06:49:36.478Z,99.90
2018-07-22T06:52:05.182Z,99.90
2018-07-22T06:54:33.874Z,99.90
2018-07-22T06:57:02.626Z,99.90
2018-07-22T06:59:31.262Z,99.90
2018-07-22T07:02:00.010Z,99.90
2018-07-22T07:04:28.625Z,99.90
2018-07-22T07:06:57.197Z,99.90
2018-07-22T07:09:25.865Z,99.90
2018-07-22T07:11:54.505Z,99.90
2018-07-22T07:14:23.291Z,99.90
2018-07-22T07:16:51.919Z,99.90
2018-07-22T07:19:20.506Z,99.90
2018-07-22T07:21:49.086Z,99.90
2018-07-22T07:24:17.682Z,99.90
2018-07-22T07:31:42.771Z,99.90
2018-07-22T07:34:11.382Z,99.90
2018-07-22T07:36:39.996Z,99.90
2018-07-22T07:39:10.764Z,99.90
2018-07-22T07:41:39.816Z,99.90
2018-07-22T07:44:12.517Z,99.90
2018-07-22T07:46:41.156Z,99.90
2018-07-22T07:49:09.861Z,99.90
2018-07-22T07:51:39.022Z,99.90
2018-07-22T07:54:07.777Z,99.90
2018-07-22T07:56:36.498Z,99.90
2018-07-22T07:59:05.397Z,99.90
2018-07-22T08:01:34.190Z,99.90
2018-07-22T08:04:02.942Z,99.90
2018-07-22T08:06:31.545Z,99.90
2018-07-22T08:09:00.129Z,99.90
2018-07-22T08:11:28.726Z,99.90
2018-07-22T08:13:57.359Z,99.90
2018-07-22T08:16:26.647Z,99.90
2018-07-22T08:18:56.439Z,99.90
2018-07-22T08:21:23.999Z,99.90
2018-07-22T08:23:52.634Z,99.90
2018-07-22T08:26:21.257Z,99.90
2018-07-22T08:29:30.674Z,99.90
2018-07-22T08:31:59.789Z,99.90
2018-07-22T08:34:28.348Z,99.90
2018-07-22T08:36:57.186Z,99.90
2018-07-22T08:39:26.845Z,99.90
2018-07-22T08:41:55.898Z,99.90
2018-07-22T08:44:24.514Z,99.90
2018-07-22T08:46:53.149Z,99.90
2018-07-22T08:49:21.938Z,99.90
2018-07-22T08:51:50.577Z,99.90
2018-07-22T08:54:19.244Z,99.90
2018-07-22T08:56:47.905Z,99.90
2018-07-22T08:59:16.538Z,99.90
2018-07-22T09:01:45.297Z,99.90
2018-07-22T09:04:13.902Z,99.90
2018-07-22T09:06:42.489Z,99.90
2018-07-22T09:09:12.221Z,99.90
2018-07-22T09:11:40.964Z,99.90
2018-07-22T09:14:10.276Z,99.90
2018-07-22T09:16:38.963Z,99.90
2018-07-22T09:19:07.694Z,99.90
2018-07-22T09:21:36.638Z,99.90
2018-07-22T09:24:05.465Z,99.90
2018-07-22T09:26:34.221Z,99.90
2018-07-22T09:29:03.006Z,99.90
2018-07-22T09:31:31.629Z,99.90
2018-07-22T09:34:00.292Z,99.90
2018-07-22T09:36:28.949Z,99.90
2018-07-22T09:38:57.544Z,99.90
2018-07-22T09:41:26.189Z,99.90
2018-07-22T09:43:54.871Z,99.90
2018-07-22T09:46:23.557Z,99.90
2018-07-22T09:48:52.495Z,99.90
2018-07-22T09:51:21.182Z,99.90
2018-07-22T09:53:49.947Z,99.90
2018-07-22T09:56:18.541Z,99.90
2018-07-22T09:58:47.142Z,99.90
2018-07-22T10:01:15.833Z,99.90
2018-07-22T10:03:44.388Z,99.90
2018-07-22T10:06:12.994Z,99.90
2018-07-22T10:08:41.620Z,99.90
2018-07-22T10:11:10.416Z,99.90
2018-07-22T10:13:39.049Z,99.90
2018-07-22T10:16:07.749Z,99.90
2018-07-22T10:18:36.517Z,99.90
2018-07-22T10:21:05.689Z,99.90
2018-07-22T10:23:34.429Z,99.90
2018-07-22T10:26:03.128Z,99.90
2018-07-22T10:28:32.113Z,99.90
2018-07-22T10:31:00.717Z,99.90
2018-07-22T10:33:29.438Z,99.90
2018-07-22T10:35:58.091Z,99.90
2018-07-22T10:38:26.677Z,99.90
2018-07-22T10:40:55.269Z,99.90
2018-07-22T10:43:23.980Z,99.90
2018-07-22T10:45:52.663Z,99.90
2018-07-22T10:48:21.286Z,99.90
2018-07-22T10:50:49.933Z,99.90
2018-07-22T10:53:18.590Z,99.90
2018-07-22T10:55:47.226Z,99.90
2018-07-22T10:58:15.857Z,99.90
2018-07-22T11:00:44.454Z,99.90
2018-07-22T11:05:41.917Z,99.90
2018-07-22T11:08:10.555Z,99.90
2018-07-22T11:10:39.189Z,99.90
2018-07-22T11:13:07.899Z,99.90
2018-07-22T11:15:36.631Z,99.90
2018-07-22T11:18:06.787Z,99.90
2018-07-22T11:20:35.840Z,99.90
2018-07-22T11:23:04.550Z,99.90
2018-07-22T11:25:33.264Z,99.90
2018-07-22T11:28:04.690Z,99.90
2018-07-22T11:30:33.430Z,99.90
2018-07-22T11:33:02.040Z,99.90
2018-07-22T11:35:30.661Z,99.90
2018-07-22T11:37:59.281Z,99.90
2018-07-22T11:40:27.925Z,99.90
2018-07-22T11:42:56.547Z,99.90
2018-07-22T11:45:25.169Z,99.90
2018-07-22T11:47:53.830Z,99.90
2018-07-22T11:50:22.466Z,99.90
2018-07-22T11:52:51.110Z,99.70
2018-07-22T11:55:20.629Z,99.00
2018-07-22T11:57:49.329Z,97.50
2018-07-22T12:00:18.013Z,99.90
2018-07-22T12:02:46.545Z,99.10
2018-07-22T12:05:15.161Z,96.60
2018-07-22T12:07:43.848Z,97.20
2018-07-22T12:10:14.780Z,98.50
2018-07-22T12:12:43.375Z,95.30
2018-07-22T12:15:12.008Z,96.90
2018-07-22T12:17:40.706Z,96.00
2018-07-22T12:20:09.429Z,96.30
2018-07-22T12:22:38.849Z,95.00
2018-07-22T12:25:07.613Z,94.40
2018-07-22T12:27:36.266Z,93.10
2018-07-22T12:30:05.130Z,95.40
2018-07-22T12:32:33.911Z,94.80
2018-07-22T12:35:02.637Z,94.40
2018-07-22T12:37:31.254Z,91.90
2018-07-22T12:39:59.868Z,91.70
2018-07-22T12:42:29.053Z,93.80
2018-07-22T12:44:57.633Z,91.60
2018-07-22T12:47:26.238Z,92.90
2018-07-22T12:49:54.827Z,91.30
2018-07-22T12:52:23.572Z,90.10
2018-07-22T12:54:52.208Z,90.20
2018-07-22T12:57:20.844Z,90.10
2018-07-22T12:59:49.431Z,89.50
2018-07-22T13:02:18.059Z,90.40
2018-07-22T13:04:46.802Z,88.30
2018-07-22T13:07:15.512Z,87.00
2018-07-22T13:09:44.101Z,86.70
2018-07-22T13:12:12.692Z,83.50
2018-07-22T13:14:41.342Z,87.20
2018-07-22T13:17:09.969Z,90.30
2018-07-22T13:19:39.526Z,86.80
2018-07-22T13:22:08.177Z,86.40
2018-07-22T13:24:43.175Z,82.60
2018-07-22T13:27:11.914Z,83.50
2018-07-22T13:29:40.560Z,81.40
2018-07-22T13:32:09.454Z,82.60
2018-07-22T13:37:06.949Z,79.70
2018-07-22T13:39:35.670Z,81.60
2018-07-22T13:42:04.358Z,85.40
2018-07-22T13:44:32.966Z,81.50
2018-07-22T13:47:01.601Z,83.20
2018-07-22T13:49:30.212Z,81.20
2018-07-22T13:51:58.856Z,83.20
2018-07-22T13:54:27.666Z,82.20
2018-07-22T13:56:56.344Z,80.40
2018-07-22T13:59:24.955Z,80.10
2018-07-22T14:01:53.682Z,81.80
2018-07-22T14:04:22.324Z,79.80
2018-07-22T14:06:51.009Z,81.90
2018-07-22T14:09:19.629Z,85.10
2018-07-22T14:11:48.270Z,81.30
2018-07-22T14:14:16.858Z,80.70
2018-07-22T14:16:45.470Z,82.10
2018-07-22T14:19:14.112Z,83.50
2018-07-22T14:21:42.775Z,82.30
2018-07-22T14:24:11.346Z,80.00
2018-07-22T14:26:40.032Z,74.70
2018-07-22T14:29:08.717Z,79.80
2018-07-22T14:31:37.587Z,79.40
2018-07-22T14:34:06.275Z,80.00
2018-07-22T14:36:35.245Z,73.30
2018-07-22T14:39:06.177Z,77.20
2018-07-22T14:41:35.023Z,74.50
2018-07-22T14:44:03.756Z,75.70
2018-07-22T14:46:32.406Z,77.20
2018-07-22T14:49:00.990Z,75.00
2018-07-22T14:51:29.694Z,78.20
2018-07-22T14:53:58.293Z,77.40
2018-07-22T14:56:26.936Z,79.60
2018-07-22T14:58:55.526Z,81.30
2018-07-22T15:01:24.219Z,81.60
2018-07-22T15:03:52.986Z,82.90
2018-07-22T15:06:22.259Z,82.10
2018-07-22T15:08:51.337Z,80.50
2018-07-22T15:11:20.039Z,80.00
2018-07-22T15:13:48.749Z,79.60
2018-07-22T15:16:17.310Z,77.70
2018-07-22T15:18:45.950Z,77.90
2018-07-22T15:21:14.713Z,78.00
2018-07-22T15:23:43.326Z,81.50
2018-07-22T15:26:11.990Z,81.10
2018-07-22T15:28:40.709Z,79.80
2018-07-22T15:31:09.373Z,82.70
2018-07-22T15:33:38.081Z,81.10
2018-07-22T15:36:06.800Z,81.70
2018-07-22T15:38:35.520Z,82.70
2018-07-22T15:41:04.277Z,80.10
2018-07-22T15:43:32.950Z,81.40
2018-07-22T15:46:01.608Z,83.80
2018-07-22T15:48:30.189Z,83.20
2018-07-22T15:50:58.840Z,85.50
2018-07-22T15:53:27.442Z,86.80
2018-07-22T15:55:56.095Z,88.80
2018-07-22T15:58:24.768Z,88.40
2018-07-22T16:00:53.613Z,90.30
2018-07-22T16:03:22.502Z,90.00
2018-07-22T16:05:51.121Z,90.00
2018-07-22T16:08:19.762Z,90.80
2018-07-22T16:10:48.374Z,90.10
2018-07-22T16:13:17.004Z,91.20
2018-07-22T16:15:45.646Z,91.10
2018-07-22T16:18:14.273Z,91.90
2018-07-22T16:20:42.897Z,91.60
2018-07-22T16:23:11.577Z,93.10
2018-07-22T16:25:45.399Z,91.80
2018-07-22T16:28:14.073Z,93.00
2018-07-22T16:30:42.697Z,92.20
2018-07-22T16:33:11.341Z,93.10
2018-07-22T16:35:40.127Z,93.90
2018-07-22T16:38:08.805Z,93.20
2018-07-22T16:40:37.488Z,94.30
2018-07-22T16:43:06.234Z,94.40
2018-07-22T16:45:34.979Z,94.20
2018-07-22T16:48:04.965Z,94.60
2018-07-22T16:50:33.728Z,95.00
2018-07-22T16:53:02.631Z,93.80
2018-07-22T16:55:31.237Z,94.60
2018-07-22T16:57:59.928Z,94.20
2018-07-22T17:00:28.508Z,94.50
2018-07-22T17:02:57.108Z,93.70
2018-07-22T17:05:25.716Z,95.60
2018-07-22T17:07:54.362Z,96.10
2018-07-22T17:10:23.011Z,96.90
2018-07-22T17:12:51.630Z,95.70
2018-07-22T17:15:20.208Z,97.10
2018-07-22T17:17:48.819Z,97.10
2018-07-22T17:20:17.457Z,96.70
2018-07-22T17:22:46.080Z,96.40
2018-07-22T17:25:14.651Z,97.20
2018-07-22T17:27:43.248Z,95.70
2018-07-22T17:30:11.861Z,97.50
2018-07-22T17:32:40.567Z,99.10
2018-07-22T17:35:09.205Z,99.20
2018-07-22T17:37:37.956Z,98.00
2018-07-22T17:40:06.983Z,97.10
2018-07-22T17:42:35.909Z,97.50
2018-07-22T17:45:04.690Z,98.30
2018-07-22T17:47:33.519Z,99.30
2018-07-22T17:50:02.262Z,98.60
2018-07-22T17:52:30.862Z,98.60
2018-07-22T17:54:59.446Z,99.30
2018-07-22T17:57:28.074Z,98.30
2018-07-22T17:59:56.658Z,99.90
2018-07-22T18:02:25.410Z,99.90
2018-07-22T18:04:54.213Z,99.90
2018-07-22T18:07:22.818Z,99.90
2018-07-22T18:09:51.520Z,99.90
2018-07-22T18:12:20.214Z,99.90
2018-07-22T18:14:48.918Z,99.90
2018-07-22T18:17:17.629Z,99.90
2018-07-22T18:19:46.304Z,99.90
2018-07-22T18:22:14.921Z,99.90
2018-07-22T18:24:43.556Z,99.90
2018-07-22T18:27:12.173Z,99.90
2018-07-22T18:29:40.796Z,99.90
2018-07-22T18:32:09.446Z,99.90
2018-07-22T18:34:38.136Z,99.90
2018-07-22T18:37:07.072Z,99.90
2018-07-22T18:39:36.001Z,99.90
2018-07-22T18:42:04.834Z,99.90
2018-07-22T18:44:33.657Z,99.90
2018-07-22T18:47:02.294Z,99.90
2018-07-22T18:49:30.981Z,99.90
2018-07-22T18:51:59.654Z,99.90
2018-07-22T18:54:28.293Z,99.90
2018-07-22T18:56:56.885Z,99.90
2018-07-22T18:59:25.496Z,99.90
2018-07-22T19:01:54.158Z,99.90
2018-07-22T19:04:22.930Z,99.90
2018-07-22T19:06:51.585Z,99.90
2018-07-22T19:09:20.246Z,99.90
2018-07-22T19:11:48.833Z,99.90
2018-07-22T19:14:17.479Z,99.90
2018-07-22T19:16:46.054Z,99.90
2018-07-22T19:19:14.710Z,99.90
2018-07-22T19:21:44.141Z,99.90
2018-07-22T19:26:41.198Z,99.90
2018-07-22T19:29:09.961Z,99.90
2018-07-22T19:31:38.699Z,99.90
2018-07-22T19:34:07.589Z,99.90
2018-07-22T19:36:36.469Z,99.90
2018-07-22T19:39:07.285Z,99.90
2018-07-22T19:41:36.014Z,99.90
2018-07-22T19:44:04.824Z,99.90
2018-07-22T19:46:34.163Z,99.90
2018-07-22T19:49:02.865Z,99.90
2018-07-22T19:51:31.485Z,99.90
2018-07-22T19:54:00.128Z,99.90
2018-07-22T19:56:28.721Z,99.90
2018-07-22T19:58:58.731Z,99.90
2018-07-22T20:01:27.369Z,99.90
2018-07-22T20:03:56.042Z,99.90
2018-07-22T20:06:24.653Z,99.90
2018-07-22T20:08:53.296Z,99.90
2018-07-22T20:11:21.905Z,99.90
2018-07-22T20:13:50.517Z,99.90
2018-07-22T20:16:19.150Z,99.90
2018-07-22T20:18:47.806Z,99.90
2018-07-22T20:21:16.489Z,99.90
2018-07-22T20:23:45.143Z,99.90
2018-07-22T20:26:13.720Z,99.90
2018-07-22T20:28:42.352Z,99.90
2018-07-22T20:31:11.013Z,99.90
2018-07-22T20:33:39.737Z,99.90
2018-07-22T20:36:08.566Z,99.90
2018-07-22T20:38:37.274Z,99.90
2018-07-22T20:41:06.003Z,99.90
2018-07-22T20:43:35.433Z,99.90
2018-07-22T20:46:04.250Z,99.90
2018-07-22T20:48:32.886Z,99.90
2018-07-22T20:51:01.819Z,99.90
2018-07-22T20:53:30.654Z,99.90
2018-07-22T20:55:59.661Z,99.90
2018-07-22T20:58:28.646Z,99.90
2018-07-22T21:00:57.565Z,99.90
2018-07-22T21:03:26.209Z,99.90
2018-07-22T21:05:54.857Z,99.90
2018-07-22T21:08:23.520Z,99.90
2018-07-22T21:10:52.186Z,99.90
2018-07-22T21:13:23.397Z,99.90
2018-07-22T21:15:52.234Z,99.90
2018-07-22T21:18:20.925Z,99.90
2018-07-22T21:20:49.590Z,99.90
2018-07-22T21:23:18.193Z,99.90
2018-07-22T21:25:46.819Z,99.90
2018-07-22T21:28:15.437Z,99.90
2018-07-22T21:30:44.083Z,99.90
2018-07-22T21:33:12.696Z,99.90
2018-07-22T21:35:41.305Z,99.90
2018-07-22T21:38:09.898Z,99.90
2018-07-22T21:40:38.684Z,99.90
2018-07-22T21:43:07.354Z,99.90
2018-07-22T21:45:36.061Z,99.90
2018-07-22T21:48:04.972Z,99.90
2018-07-22T21:50:33.857Z,99.90
2018-07-22T21:53:02.527Z,99.90
2018-07-22T21:55:31.166Z,99.90
2018-07-22T21:57:59.786Z,99.90
2018-07-22T22:00:33.709Z,99.90
2018-07-22T22:03:03.522Z,99.90
2018-07-22T22:05:32.136Z,99.90
2018-07-22T22:08:00.773Z,99.90
2018-07-22T22:10:29.508Z,99.90
2018-07-22T22:12:58.233Z,99.90
2018-07-22T22:15:27.962Z,99.90
2018-07-22T22:18:00.718Z,99.90
2018-07-22T22:20:29.854Z,99.90
2018-07-22T22:22:58.529Z,99.90
2018-07-22T22:25:27.243Z,99.90
2018-07-22T22:27:55.924Z,99.90
2018-07-22T22:30:24.564Z,99.90
2018-07-22T22:32:53.185Z,99.90
2018-07-22T22:35:21.833Z,99.90
2018-07-22T22:37:50.454Z,99.90
2018-07-22T22:40:19.161Z,99.90
2018-07-22T22:42:47.861Z,99.90
2018-07-22T22:45:16.691Z,99.90
2018-07-22T22:47:45.489Z,99.90
2018-07-22T22:50:14.197Z,99.90
2018-07-22T22:52:51.104Z,99.90
2018-07-22T22:55:19.913Z,99.90
2018-07-22T22:57:59.590Z,99.90
2018-07-22T23:00:28.296Z,99.90
2018-07-22T23:02:56.909Z,99.90
2018-07-22T23:05:25.511Z,99.90
2018-07-22T23:07:54.134Z,99.90
2018-07-22T23:12:51.069Z,99.90
2018-07-22T23:15:19.687Z,99.90
2018-07-22T23:17:48.357Z,99.90
2018-07-22T23:20:16.998Z,99.90
2018-07-22T23:22:45.640Z,99.90
2018-07-22T23:25:14.334Z,99.90
2018-07-22T23:27:43.049Z,99.90
2018-07-22T23:30:11.738Z,99.90
2018-07-22T23:32:40.430Z,99.90
2018-07-22T23:35:09.045Z,99.90
2018-07-22T23:37:37.671Z,99.90
2018-07-22T23:40:06.286Z,99.90
2018-07-22T23:42:34.912Z,99.90
2018-07-22T23:45:03.500Z,99.90
2018-07-22T23:47:32.154Z,99.90
2018-07-22T23:50:00.785Z,99.90
2018-07-22T23:52:29.548Z,99.90
2018-07-22T23:54:58.202Z,99.90
2018-07-22T23:57:26.856Z,99.90
2018-07-22T23:59:55.436Z,99.90
